sensor_id;sensor_type;location;lat;lon;timestamp;P1;durP1;ratioP1;P2;durP2;ratioP2
71290;SDS011;59073;51.994;4.448;2022-09-03T00:00:20;1.70;;;1.70;;
71290;SDS011;59073;51.994;4.448;2022-09-03T00:05:52;1.64;;;1.64;;
71290;SDS011;59073;51.994;4.448;2022-09-03T00:08:32;1.61;;;1.61;;
71290;SDS011;59073;51.994;4.448;2022-09-03T00:11:23;1.59;;;1.59;;
71290;SDS011;59073;51.994;4.448;2022-09-03T00:14:13;1.91;;;1.91;;
71290;SDS011;59073;51.994;4.448;2022-09-03T00:16:49;1.58;;;1.58;;
71290;SDS011;59073;51.994;4.448;2022-09-03T00:19:17;1.74;;;1.74;;
71290;SDS011;59073;51.994;4.448;2022-09-03T00:21:53;1.64;;;1.64;;
71290;SDS011;59073;51.994;4.448;2022-09-03T00:24:25;1.75;;;1.75;;
71290;SDS011;59073;51.994;4.448;2022-09-03T00:26:56;1.62;;;1.62;;
71290;SDS011;59073;51.994;4.448;2022-09-03T00:29:28;1.62;;;1.62;;
71290;SDS011;59073;51.994;4.448;2022-09-03T00:32:18;1.77;;;1.77;;
71290;SDS011;59073;51.994;4.448;2022-09-03T00:34:52;1.63;;;1.63;;
71290;SDS011;59073;51.994;4.448;2022-09-03T00:37:25;1.50;;;1.50;;
71290;SDS011;59073;51.994;4.448;2022-09-03T00:39:53;1.75;;;1.75;;
71290;SDS011;59073;51.994;4.448;2022-09-03T00:48:04;1.66;;;1.66;;
71290;SDS011;59073;51.994;4.448;2022-09-03T00:53:47;1.73;;;1.73;;
71290;SDS011;59073;51.994;4.448;2022-09-03T00:56:21;1.66;;;1.66;;
71290;SDS011;59073;51.994;4.448;2022-09-03T01:02:05;1.80;;;1.80;;
71290;SDS011;59073;51.994;4.448;2022-09-03T01:10:16;1.90;;;1.90;;
71290;SDS011;59073;51.994;4.448;2022-09-03T01:15:35;1.65;;;1.65;;
71290;SDS011;59073;51.994;4.448;2022-09-03T01:20:52;1.65;;;1.65;;
71290;SDS011;59073;51.994;4.448;2022-09-03T01:32:50;1.68;;;1.68;;
71290;SDS011;59073;51.994;4.448;2022-09-03T01:34:56;1.72;;;1.72;;
71290;SDS011;59073;51.994;4.448;2022-09-03T01:43:14;1.77;;;1.77;;
71290;SDS011;59073;51.994;4.448;2022-09-03T01:46:22;1.83;;;1.83;;
71290;SDS011;59073;51.994;4.448;2022-09-03T01:51:30;1.70;;;1.70;;
71290;SDS011;59073;51.994;4.448;2022-09-03T01:57:19;1.72;;;1.72;;
71290;SDS011;59073;51.994;4.448;2022-09-03T02:00:11;1.69;;;1.69;;
71290;SDS011;59073;51.994;4.448;2022-09-03T02:02:45;1.73;;;1.73;;
71290;SDS011;59073;51.994;4.448;2022-09-03T02:05:17;1.94;;;1.94;;
71290;SDS011;59073;51.994;4.448;2022-09-03T02:07:45;1.70;;;1.70;;
71290;SDS011;59073;51.994;4.448;2022-09-03T02:10:14;1.59;;;1.59;;
71290;SDS011;59073;51.994;4.448;2022-09-03T02:12:45;1.67;;;1.67;;
71290;SDS011;59073;51.994;4.448;2022-09-03T02:15:18;1.69;;;1.69;;
71290;SDS011;59073;51.994;4.448;2022-09-03T02:17:47;1.72;;;1.72;;
71290;SDS011;59073;51.994;4.448;2022-09-03T02:20:19;1.66;;;1.66;;
71290;SDS011;59073;51.994;4.448;2022-09-03T02:22:47;1.82;;;1.82;;
71290;SDS011;59073;51.994;4.448;2022-09-03T02:25:14;1.62;;;1.62;;
71290;SDS011;59073;51.994;4.448;2022-09-03T02:27:44;1.81;;;1.81;;
71290;SDS011;59073;51.994;4.448;2022-09-03T02:30:12;1.69;;;1.69;;
71290;SDS011;59073;51.994;4.448;2022-09-03T02:32:37;1.77;;;1.77;;
71290;SDS011;59073;51.994;4.448;2022-09-03T02:35:03;1.75;;;1.75;;
71290;SDS011;59073;51.994;4.448;2022-09-03T02:37:29;1.90;;;1.90;;
71290;SDS011;59073;51.994;4.448;2022-09-03T02:39:54;1.76;;;1.76;;
71290;SDS011;59073;51.994;4.448;2022-09-03T02:42:20;1.89;;;1.89;;
71290;SDS011;59073;51.994;4.448;2022-09-03T02:44:56;1.98;;;1.98;;
71290;SDS011;59073;51.994;4.448;2022-09-03T02:47:41;1.85;;;1.85;;
71290;SDS011;59073;51.994;4.448;2022-09-03T02:50:09;1.94;;;1.94;;
71290;SDS011;59073;51.994;4.448;2022-09-03T02:52:35;1.80;;;1.80;;
71290;SDS011;59073;51.994;4.448;2022-09-03T02:55:00;2.04;;;2.04;;
71290;SDS011;59073;51.994;4.448;2022-09-03T02:57:26;1.87;;;1.87;;
71290;SDS011;59073;51.994;4.448;2022-09-03T02:59:53;2.12;;;2.12;;
71290;SDS011;59073;51.994;4.448;2022-09-03T03:02:18;1.85;;;1.85;;
71290;SDS011;59073;51.994;4.448;2022-09-03T03:04:43;1.93;;;1.93;;
71290;SDS011;59073;51.994;4.448;2022-09-03T03:07:09;2.05;;;2.05;;
71290;SDS011;59073;51.994;4.448;2022-09-03T03:09:34;1.92;;;1.92;;
71290;SDS011;59073;51.994;4.448;2022-09-03T03:12:00;2.17;;;2.17;;
71290;SDS011;59073;51.994;4.448;2022-09-03T03:14:25;2.24;;;2.24;;
71290;SDS011;59073;51.994;4.448;2022-09-03T03:16:51;2.15;;;2.15;;
71290;SDS011;59073;51.994;4.448;2022-09-03T03:19:16;1.98;;;1.98;;
71290;SDS011;59073;51.994;4.448;2022-09-03T03:21:42;1.96;;;1.96;;
71290;SDS011;59073;51.994;4.448;2022-09-03T03:24:08;1.99;;;1.99;;
71290;SDS011;59073;51.994;4.448;2022-09-03T03:26:33;2.06;;;2.06;;
71290;SDS011;59073;51.994;4.448;2022-09-03T03:28:59;2.01;;;2.01;;
71290;SDS011;59073;51.994;4.448;2022-09-03T03:31:28;2.06;;;2.06;;
71290;SDS011;59073;51.994;4.448;2022-09-03T03:33:55;2.04;;;2.04;;
71290;SDS011;59073;51.994;4.448;2022-09-03T03:36:23;2.19;;;2.19;;
71290;SDS011;59073;51.994;4.448;2022-09-03T03:38:54;2.17;;;2.17;;
71290;SDS011;59073;51.994;4.448;2022-09-03T03:41:31;2.21;;;2.21;;
71290;SDS011;59073;51.994;4.448;2022-09-03T03:43:59;2.19;;;2.19;;
71290;SDS011;59073;51.994;4.448;2022-09-03T03:46:30;2.29;;;2.29;;
71290;SDS011;59073;51.994;4.448;2022-09-03T03:49:01;2.42;;;2.42;;
71290;SDS011;59073;51.994;4.448;2022-09-03T03:51:26;2.39;;;2.39;;
71290;SDS011;59073;51.994;4.448;2022-09-03T03:53:56;2.35;;;2.35;;
71290;SDS011;59073;51.994;4.448;2022-09-03T03:56:22;2.02;;;2.02;;
71290;SDS011;59073;51.994;4.448;2022-09-03T03:58:50;2.15;;;2.15;;
71290;SDS011;59073;51.994;4.448;2022-09-03T04:01:21;2.17;;;2.17;;
71290;SDS011;59073;51.994;4.448;2022-09-03T04:03:48;2.16;;;2.16;;
71290;SDS011;59073;51.994;4.448;2022-09-03T04:06:18;2.43;;;2.43;;
71290;SDS011;59073;51.994;4.448;2022-09-03T04:08:45;2.28;;;2.28;;
71290;SDS011;59073;51.994;4.448;2022-09-03T04:11:13;2.17;;;2.17;;
71290;SDS011;59073;51.994;4.448;2022-09-03T04:13:41;2.25;;;2.25;;
71290;SDS011;59073;51.994;4.448;2022-09-03T04:16:15;2.21;;;2.21;;
71290;SDS011;59073;51.994;4.448;2022-09-03T04:18:43;2.28;;;2.28;;
71290;SDS011;59073;51.994;4.448;2022-09-03T04:21:13;2.12;;;2.12;;
71290;SDS011;59073;51.994;4.448;2022-09-03T04:23:42;2.26;;;2.26;;
71290;SDS011;59073;51.994;4.448;2022-09-03T04:26:10;2.19;;;2.19;;
71290;SDS011;59073;51.994;4.448;2022-09-03T04:28:39;2.16;;;2.16;;
71290;SDS011;59073;51.994;4.448;2022-09-03T04:31:07;1.96;;;1.96;;
71290;SDS011;59073;51.994;4.448;2022-09-03T04:33:34;2.15;;;2.15;;
71290;SDS011;59073;51.994;4.448;2022-09-03T04:36:15;2.16;;;2.16;;
71290;SDS011;59073;51.994;4.448;2022-09-03T04:41:56;2.25;;;2.25;;
71290;SDS011;59073;51.994;4.448;2022-09-03T05:18:06;2.38;;;2.38;;
71290;SDS011;59073;51.994;4.448;2022-09-03T05:47:47;2.14;;;2.14;;
71290;SDS011;59073;51.994;4.448;2022-09-03T05:50:13;2.10;;;2.10;;
71290;SDS011;59073;51.994;4.448;2022-09-03T05:55:33;1.92;;;1.92;;
71290;SDS011;59073;51.994;4.448;2022-09-03T05:57:59;1.89;;;1.89;;
71290;SDS011;59073;51.994;4.448;2022-09-03T06:00:27;1.86;;;1.86;;
71290;SDS011;59073;51.994;4.448;2022-09-03T06:02:53;2.05;;;2.05;;
71290;SDS011;59073;51.994;4.448;2022-09-03T06:05:18;2.03;;;2.03;;
71290;SDS011;59073;51.994;4.448;2022-09-03T06:07:44;1.90;;;1.90;;
71290;SDS011;59073;51.994;4.448;2022-09-03T06:10:14;2.06;;;2.06;;
71290;SDS011;59073;51.994;4.448;2022-09-03T06:12:41;1.95;;;1.95;;
71290;SDS011;59073;51.994;4.448;2022-09-03T06:15:13;1.90;;;1.90;;
71290;SDS011;59073;51.994;4.448;2022-09-03T06:17:39;2.04;;;2.04;;
71290;SDS011;59073;51.994;4.448;2022-09-03T06:20:04;1.78;;;1.78;;
71290;SDS011;59073;51.994;4.448;2022-09-03T06:22:30;2.11;;;2.11;;
71290;SDS011;59073;51.994;4.448;2022-09-03T06:24:55;1.95;;;1.95;;
71290;SDS011;59073;51.994;4.448;2022-09-03T06:27:21;1.87;;;1.87;;
71290;SDS011;59073;51.994;4.448;2022-09-03T06:29:46;1.85;;;1.85;;
71290;SDS011;59073;51.994;4.448;2022-09-03T06:32:12;1.73;;;1.73;;
71290;SDS011;59073;51.994;4.448;2022-09-03T06:34:38;1.79;;;1.79;;
71290;SDS011;59073;51.994;4.448;2022-09-03T06:37:05;1.67;;;1.67;;
71290;SDS011;59073;51.994;4.448;2022-09-03T06:39:31;1.82;;;1.82;;
71290;SDS011;59073;51.994;4.448;2022-09-03T06:41:56;1.76;;;1.76;;
71290;SDS011;59073;51.994;4.448;2022-09-03T06:44:22;1.86;;;1.86;;
71290;SDS011;59073;51.994;4.448;2022-09-03T06:46:49;1.91;;;1.91;;
71290;SDS011;59073;51.994;4.448;2022-09-03T06:49:20;1.99;;;1.99;;
71290;SDS011;59073;51.994;4.448;2022-09-03T06:51:45;1.97;;;1.97;;
71290;SDS011;59073;51.994;4.448;2022-09-03T06:54:11;2.01;;;2.01;;
71290;SDS011;59073;51.994;4.448;2022-09-03T06:56:38;1.78;;;1.78;;
71290;SDS011;59073;51.994;4.448;2022-09-03T06:59:08;1.96;;;1.96;;
71290;SDS011;59073;51.994;4.448;2022-09-03T07:01:36;1.87;;;1.87;;
71290;SDS011;59073;51.994;4.448;2022-09-03T07:04:07;2.13;;;2.13;;
71290;SDS011;59073;51.994;4.448;2022-09-03T07:06:35;2.35;;;2.35;;
71290;SDS011;59073;51.994;4.448;2022-09-03T07:09:07;2.06;;;2.06;;
71290;SDS011;59073;51.994;4.448;2022-09-03T07:11:34;2.30;;;2.30;;
71290;SDS011;59073;51.994;4.448;2022-09-03T07:14:01;2.01;;;2.01;;
71290;SDS011;59073;51.994;4.448;2022-09-03T07:16:33;1.80;;;1.80;;
71290;SDS011;59073;51.994;4.448;2022-09-03T07:19:00;1.94;;;1.94;;
71290;SDS011;59073;51.994;4.448;2022-09-03T07:21:53;1.93;;;1.93;;
71290;SDS011;59073;51.994;4.448;2022-09-03T07:24:30;1.97;;;1.97;;
71290;SDS011;59073;51.994;4.448;2022-09-03T07:27:01;2.17;;;2.17;;
71290;SDS011;59073;51.994;4.448;2022-09-03T07:29:33;1.96;;;1.96;;
71290;SDS011;59073;51.994;4.448;2022-09-03T07:32:09;2.11;;;2.11;;
71290;SDS011;59073;51.994;4.448;2022-09-03T07:44:40;1.91;;;1.91;;
71290;SDS011;59073;51.994;4.448;2022-09-03T07:47:05;1.85;;;1.85;;
71290;SDS011;59073;51.994;4.448;2022-09-03T07:49:40;2.14;;;2.14;;
71290;SDS011;59073;51.994;4.448;2022-09-03T07:52:14;1.97;;;1.97;;
71290;SDS011;59073;51.994;4.448;2022-09-03T07:59:00;1.89;;;1.89;;
71290;SDS011;59073;51.994;4.448;2022-09-03T08:11:35;1.69;;;1.69;;
71290;SDS011;59073;51.994;4.448;2022-09-03T08:37:15;1.94;;;1.94;;
71290;SDS011;59073;51.994;4.448;2022-09-03T08:56:44;1.63;;;1.63;;
71290;SDS011;59073;51.994;4.448;2022-09-03T08:59:41;1.57;;;1.57;;
71290;SDS011;59073;51.994;4.448;2022-09-03T09:40:33;1.64;;;1.64;;
71290;SDS011;59073;51.994;4.448;2022-09-03T10:04:23;1.56;;;1.56;;
71290;SDS011;59073;51.994;4.448;2022-09-03T10:10:40;1.53;;;1.53;;
71290;SDS011;59073;51.994;4.448;2022-09-03T10:13:41;1.42;;;1.42;;
71290;SDS011;59073;51.994;4.448;2022-09-03T10:16:29;1.49;;;1.49;;
71290;SDS011;59073;51.994;4.448;2022-09-03T10:27:15;1.77;;;1.77;;
71290;SDS011;59073;51.994;4.448;2022-09-03T10:29:42;1.48;;;1.48;;
71290;SDS011;59073;51.994;4.448;2022-09-03T10:35:17;1.56;;;1.56;;
71290;SDS011;59073;51.994;4.448;2022-09-03T10:38:07;1.69;;;1.69;;
71290;SDS011;59073;51.994;4.448;2022-09-03T10:43:17;1.65;;;1.65;;
71290;SDS011;59073;51.994;4.448;2022-09-03T10:46:12;1.71;;;1.71;;
71290;SDS011;59073;51.994;4.448;2022-09-03T10:48:47;1.54;;;1.54;;
71290;SDS011;59073;51.994;4.448;2022-09-03T10:51:40;1.54;;;1.54;;
71290;SDS011;59073;51.994;4.448;2022-09-03T11:05:22;1.47;;;1.47;;
71290;SDS011;59073;51.994;4.448;2022-09-03T11:08:38;1.62;;;1.62;;
71290;SDS011;59073;51.994;4.448;2022-09-03T11:10:54;1.41;;;1.41;;
71290;SDS011;59073;51.994;4.448;2022-09-03T11:13:30;1.45;;;1.45;;
71290;SDS011;59073;51.994;4.448;2022-09-03T11:16:07;1.42;;;1.42;;
71290;SDS011;59073;51.994;4.448;2022-09-03T11:19:04;1.56;;;1.56;;
71290;SDS011;59073;51.994;4.448;2022-09-03T11:21:39;1.45;;;1.45;;
71290;SDS011;59073;51.994;4.448;2022-09-03T16:01:58;1.84;;;1.84;;
71290;SDS011;59073;51.994;4.448;2022-09-03T16:08:17;1.60;;;1.60;;
71290;SDS011;59073;51.994;4.448;2022-09-03T16:10:45;1.67;;;1.67;;
71290;SDS011;59073;51.994;4.448;2022-09-03T16:19:16;1.50;;;1.50;;
71290;SDS011;59073;51.994;4.448;2022-09-03T16:21:57;1.70;;;1.70;;
71290;SDS011;59073;51.994;4.448;2022-09-03T16:24:31;1.38;;;1.38;;
71290;SDS011;59073;51.994;4.448;2022-09-03T16:27:24;1.70;;;1.70;;
71290;SDS011;59073;51.994;4.448;2022-09-03T16:36:21;1.70;;;1.70;;
71290;SDS011;59073;51.994;4.448;2022-09-03T16:38:42;1.48;;;1.48;;
71290;SDS011;59073;51.994;4.448;2022-09-03T16:44:00;1.59;;;1.59;;
71290;SDS011;59073;51.994;4.448;2022-09-03T16:46:45;1.31;;;1.31;;
71290;SDS011;59073;51.994;4.448;2022-09-03T16:49:50;1.43;;;1.43;;
71290;SDS011;59073;51.994;4.448;2022-09-03T16:55:23;1.38;;;1.38;;
71290;SDS011;59073;51.994;4.448;2022-09-03T16:58:09;1.36;;;1.36;;
71290;SDS011;59073;51.994;4.448;2022-09-03T17:06:38;1.59;;;1.59;;
71290;SDS011;59073;51.994;4.448;2022-09-03T17:09:33;1.46;;;1.46;;
71290;SDS011;59073;51.994;4.448;2022-09-03T17:15:04;1.63;;;1.63;;
71290;SDS011;59073;51.994;4.448;2022-09-03T17:17:49;1.56;;;1.56;;
71290;SDS011;59073;51.994;4.448;2022-09-03T17:26:20;1.36;;;1.36;;
71290;SDS011;59073;51.994;4.448;2022-09-03T17:29:05;1.54;;;1.54;;
71290;SDS011;59073;51.994;4.448;2022-09-03T17:37:30;1.53;;;1.53;;
71290;SDS011;59073;51.994;4.448;2022-09-03T17:40:17;1.35;;;1.35;;
71290;SDS011;59073;51.994;4.448;2022-09-03T17:43:16;1.48;;;1.48;;
71290;SDS011;59073;51.994;4.448;2022-09-03T17:46:07;1.68;;;1.68;;
71290;SDS011;59073;51.994;4.448;2022-09-03T17:48:57;1.72;;;1.72;;
71290;SDS011;59073;51.994;4.448;2022-09-03T17:51:41;1.57;;;1.57;;
71290;SDS011;59073;51.994;4.448;2022-09-03T17:59:59;1.54;;;1.54;;
71290;SDS011;59073;51.994;4.448;2022-09-03T18:02:30;1.53;;;1.53;;
71290;SDS011;59073;51.994;4.448;2022-09-03T18:07:43;1.69;;;1.69;;
71290;SDS011;59073;51.994;4.448;2022-09-03T18:10:38;1.55;;;1.55;;
71290;SDS011;59073;51.994;4.448;2022-09-03T18:13:15;1.69;;;1.69;;
71290;SDS011;59073;51.994;4.448;2022-09-03T18:15:56;1.44;;;1.44;;
71290;SDS011;59073;51.994;4.448;2022-09-03T18:18:33;1.88;;;1.88;;
71290;SDS011;59073;51.994;4.448;2022-09-03T18:21:12;1.62;;;1.62;;
71290;SDS011;59073;51.994;4.448;2022-09-03T18:27:14;1.71;;;1.71;;
71290;SDS011;59073;51.994;4.448;2022-09-03T18:30:05;1.73;;;1.73;;
71290;SDS011;59073;51.994;4.448;2022-09-03T18:32:51;1.63;;;1.63;;
71290;SDS011;59073;51.994;4.448;2022-09-03T18:35:35;1.62;;;1.62;;
71290;SDS011;59073;51.994;4.448;2022-09-03T18:38:25;1.43;;;1.43;;
71290;SDS011;59073;51.994;4.448;2022-09-03T18:41:38;1.56;;;1.56;;
71290;SDS011;59073;51.994;4.448;2022-09-03T18:44:44;1.85;;;1.85;;
71290;SDS011;59073;51.994;4.448;2022-09-03T18:47:45;1.72;;;1.72;;
71290;SDS011;59073;51.994;4.448;2022-09-03T18:50:45;1.53;;;1.53;;
71290;SDS011;59073;51.994;4.448;2022-09-03T18:56:42;1.97;;;1.97;;
71290;SDS011;59073;51.994;4.448;2022-09-03T18:59:40;1.68;;;1.68;;
71290;SDS011;59073;51.994;4.448;2022-09-03T19:02:46;1.63;;;1.63;;
71290;SDS011;59073;51.994;4.448;2022-09-03T19:05:54;1.93;;;1.93;;
71290;SDS011;59073;51.994;4.448;2022-09-03T19:11:54;1.76;;;1.76;;
71290;SDS011;59073;51.994;4.448;2022-09-03T19:21:09;1.81;;;1.81;;
71290;SDS011;59073;51.994;4.448;2022-09-03T19:24:14;1.92;;;1.92;;
71290;SDS011;59073;51.994;4.448;2022-09-03T19:30:00;1.90;;;1.90;;
71290;SDS011;59073;51.994;4.448;2022-09-03T19:35:53;1.97;;;1.97;;
71290;SDS011;59073;51.994;4.448;2022-09-03T19:39:23;2.07;;;2.07;;
71290;SDS011;59073;51.994;4.448;2022-09-03T19:49:09;2.18;;;2.18;;
71290;SDS011;59073;51.994;4.448;2022-09-03T19:52:24;2.07;;;2.07;;
71290;SDS011;59073;51.994;4.448;2022-09-03T19:55:14;1.95;;;1.95;;
71290;SDS011;59073;51.994;4.448;2022-09-03T19:58:07;2.24;;;2.24;;
71290;SDS011;59073;51.994;4.448;2022-09-03T20:00:53;2.04;;;2.04;;
71290;SDS011;59073;51.994;4.448;2022-09-03T20:03:37;2.19;;;2.19;;
71290;SDS011;59073;51.994;4.448;2022-09-03T20:06:22;2.09;;;2.09;;
71290;SDS011;59073;51.994;4.448;2022-09-03T20:09:07;1.99;;;1.99;;
71290;SDS011;59073;51.994;4.448;2022-09-03T20:11:54;2.28;;;2.28;;
71290;SDS011;59073;51.994;4.448;2022-09-03T20:14:24;2.47;;;2.47;;
71290;SDS011;59073;51.994;4.448;2022-09-03T20:19:47;2.34;;;2.34;;
71290;SDS011;59073;51.994;4.448;2022-09-03T20:25:27;2.43;;;2.43;;
71290;SDS011;59073;51.994;4.448;2022-09-03T20:28:23;2.63;;;2.63;;
71290;SDS011;59073;51.994;4.448;2022-09-03T20:31:24;2.30;;;2.30;;
71290;SDS011;59073;51.994;4.448;2022-09-03T20:34:13;2.26;;;2.26;;
71290;SDS011;59073;51.994;4.448;2022-09-03T20:43:15;2.31;;;2.31;;
71290;SDS011;59073;51.994;4.448;2022-09-03T20:51:11;2.47;;;2.47;;
71290;SDS011;59073;51.994;4.448;2022-09-03T20:54:02;2.66;;;2.66;;
71290;SDS011;59073;51.994;4.448;2022-09-03T20:56:56;2.68;;;2.68;;
71290;SDS011;59073;51.994;4.448;2022-09-03T21:08:17;2.69;;;2.69;;
71290;SDS011;59073;51.994;4.448;2022-09-03T21:24:26;3.17;;;3.17;;
71290;SDS011;59073;51.994;4.448;2022-09-03T21:27:02;3.46;;;3.46;;
71290;SDS011;59073;51.994;4.448;2022-09-03T21:29:37;3.03;;;3.03;;
71290;SDS011;59073;51.994;4.448;2022-09-03T21:32:15;3.28;;;3.28;;
71290;SDS011;59073;51.994;4.448;2022-09-03T21:34:57;3.38;;;3.38;;
71290;SDS011;59073;51.994;4.448;2022-09-03T21:37:34;3.28;;;3.28;;
71290;SDS011;59073;51.994;4.448;2022-09-03T21:40:03;3.08;;;3.08;;
71290;SDS011;59073;51.994;4.448;2022-09-03T21:47:58;3.34;;;3.34;;
71290;SDS011;59073;51.994;4.448;2022-09-03T21:50:37;3.06;;;3.06;;
71290;SDS011;59073;51.994;4.448;2022-09-03T21:58:49;3.02;;;3.02;;
71290;SDS011;59073;51.994;4.448;2022-09-03T22:01:54;2.67;;;2.67;;
71290;SDS011;59073;51.994;4.448;2022-09-03T22:04:34;3.01;;;3.01;;
71290;SDS011;59073;51.994;4.448;2022-09-03T22:09:45;3.27;;;3.27;;
71290;SDS011;59073;51.994;4.448;2022-09-03T22:12:31;3.67;;;3.67;;
71290;SDS011;59073;51.994;4.448;2022-09-03T22:15:10;3.85;;;3.85;;
71290;SDS011;59073;51.994;4.448;2022-09-03T22:17:49;3.41;;;3.41;;
71290;SDS011;59073;51.994;4.448;2022-09-03T22:20:21;3.63;;;3.63;;
71290;SDS011;59073;51.994;4.448;2022-09-03T22:31:16;3.12;;;3.12;;
71290;SDS011;59073;51.994;4.448;2022-09-03T22:34:16;3.51;;;3.51;;
71290;SDS011;59073;51.994;4.448;2022-09-03T22:36:50;3.61;;;3.61;;
71290;SDS011;59073;51.994;4.448;2022-09-03T22:39:37;3.40;;;3.40;;
71290;SDS011;59073;51.994;4.448;2022-09-03T22:42:10;4.26;;;4.26;;
71290;SDS011;59073;51.994;4.448;2022-09-03T22:45:40;3.84;;;3.84;;
71290;SDS011;59073;51.994;4.448;2022-09-03T22:48:13;3.99;;;3.99;;
71290;SDS011;59073;51.994;4.448;2022-09-03T22:50:55;4.44;;;4.44;;
71290;SDS011;59073;51.994;4.448;2022-09-03T22:56:14;4.43;;;4.43;;
71290;SDS011;59073;51.994;4.448;2022-09-03T22:59:06;4.75;;;4.75;;
71290;SDS011;59073;51.994;4.448;2022-09-03T23:01:55;4.55;;;4.55;;
71290;SDS011;59073;51.994;4.448;2022-09-03T23:04:28;4.76;;;4.76;;
71290;SDS011;59073;51.994;4.448;2022-09-03T23:07:01;5.12;;;5.12;;
71290;SDS011;59073;51.994;4.448;2022-09-03T23:09:39;5.00;;;5.00;;
71290;SDS011;59073;51.994;4.448;2022-09-03T23:12:14;5.46;;;5.46;;
71290;SDS011;59073;51.994;4.448;2022-09-03T23:14:47;5.16;;;5.16;;
71290;SDS011;59073;51.994;4.448;2022-09-03T23:17:21;5.01;;;5.01;;
71290;SDS011;59073;51.994;4.448;2022-09-03T23:20:05;4.62;;;4.62;;
71290;SDS011;59073;51.994;4.448;2022-09-03T23:22:43;5.48;;;5.48;;
71290;SDS011;59073;51.994;4.448;2022-09-03T23:25:17;5.90;;;5.90;;
71290;SDS011;59073;51.994;4.448;2022-09-03T23:27:56;5.12;;;5.12;;
71290;SDS011;59073;51.994;4.448;2022-09-03T23:30:27;5.21;;;5.21;;
71290;SDS011;59073;51.994;4.448;2022-09-03T23:32:57;5.25;;;5.25;;
71290;SDS011;59073;51.994;4.448;2022-09-03T23:38:39;5.19;;;5.19;;
71290;SDS011;59073;51.994;4.448;2022-09-03T23:41:19;5.32;;;5.32;;
71290;SDS011;59073;51.994;4.448;2022-09-03T23:44:17;5.58;;;5.58;;
71290;SDS011;59073;51.994;4.448;2022-09-03T23:50:12;5.50;;;5.50;;
71290;SDS011;59073;51.994;4.448;2022-09-03T23:55:36;5.71;;;5.71;;
